sensor_id;sensor_type;location;lat;lon;timestamp;P1;durP1;ratioP1;P2;durP2;ratioP2
4650;SDS011;2338;49.602;8.722;2023-05-10T00:02:31;2.67;;;2.43;;
4650;SDS011;2338;49.602;8.722;2023-05-10T00:05:16;2.50;;;2.07;;
4650;SDS011;2338;49.602;8.722;2023-05-10T00:08:03;2.70;;;2.37;;
4650;SDS011;2338;49.602;8.722;2023-05-10T00:10:49;3.77;;;2.90;;
4650;SDS011;2338;49.602;8.722;2023-05-10T00:13:34;3.80;;;2.37;;
4650;SDS011;2338;49.602;8.722;2023-05-10T00:16:20;6.53;;;2.77;;
4650;SDS011;2338;49.602;8.722;2023-05-10T00:19:05;3.40;;;2.63;;
4650;SDS011;2338;49.602;8.722;2023-05-10T00:21:51;3.40;;;2.60;;
4650;SDS011;2338;49.602;8.722;2023-05-10T00:24:38;7.57;;;3.83;;
4650;SDS011;2338;49.602;8.722;2023-05-10T00:27:24;5.10;;;3.37;;
4650;SDS011;2338;49.602;8.722;2023-05-10T00:30:09;5.03;;;2.00;;
4650;SDS011;2338;49.602;8.722;2023-05-10T00:32:55;3.30;;;2.40;;
4650;SDS011;2338;49.602;8.722;2023-05-10T00:35:40;6.00;;;2.40;;
4650;SDS011;2338;49.602;8.722;2023-05-10T00:38:26;4.67;;;2.50;;
4650;SDS011;2338;49.602;8.722;2023-05-10T00:41:13;3.47;;;2.63;;
4650;SDS011;2338;49.602;8.722;2023-05-10T00:43:59;2.63;;;2.40;;
4650;SDS011;2338;49.602;8.722;2023-05-10T00:46:45;2.40;;;1.87;;
4650;SDS011;2338;49.602;8.722;2023-05-10T00:49:31;5.30;;;1.83;;
4650;SDS011;2338;49.602;8.722;2023-05-10T00:52:17;3.73;;;2.90;;
4650;SDS011;2338;49.602;8.722;2023-05-10T00:55:02;2.70;;;1.97;;
4650;SDS011;2338;49.602;8.722;2023-05-10T00:57:50;4.73;;;2.10;;
4650;SDS011;2338;49.602;8.722;2023-05-10T01:00:37;2.90;;;2.60;;
4650;SDS011;2338;49.602;8.722;2023-05-10T01:03:27;3.30;;;2.07;;
4650;SDS011;2338;49.602;8.722;2023-05-10T01:06:13;6.47;;;2.20;;
4650;SDS011;2338;49.602;8.722;2023-05-10T01:08:58;3.10;;;2.40;;
4650;SDS011;2338;49.602;8.722;2023-05-10T01:11:44;7.50;;;2.90;;
4650;SDS011;2338;49.602;8.722;2023-05-10T01:14:31;3.57;;;2.97;;
4650;SDS011;2338;49.602;8.722;2023-05-10T01:17:16;4.33;;;3.20;;
4650;SDS011;2338;49.602;8.722;2023-05-10T01:20:02;3.13;;;2.80;;
4650;SDS011;2338;49.602;8.722;2023-05-10T01:23:04;5.40;;;3.40;;
4650;SDS011;2338;49.602;8.722;2023-05-10T01:26:20;3.77;;;3.17;;
4650;SDS011;2338;49.602;8.722;2023-05-10T01:29:27;3.90;;;2.70;;
4650;SDS011;2338;49.602;8.722;2023-05-10T01:32:42;5.30;;;3.40;;
4650;SDS011;2338;49.602;8.722;2023-05-10T01:35:36;3.30;;;3.00;;
4650;SDS011;2338;49.602;8.722;2023-05-10T01:38:27;3.10;;;2.80;;
4650;SDS011;2338;49.602;8.722;2023-05-10T01:41:24;5.73;;;3.00;;
4650;SDS011;2338;49.602;8.722;2023-05-10T01:44:17;4.63;;;3.10;;
4650;SDS011;2338;49.602;8.722;2023-05-10T01:47:09;3.83;;;3.40;;
4650;SDS011;2338;49.602;8.722;2023-05-10T01:49:59;4.00;;;3.23;;
4650;SDS011;2338;49.602;8.722;2023-05-10T01:52:47;5.60;;;3.20;;
4650;SDS011;2338;49.602;8.722;2023-05-10T01:55:39;4.73;;;3.70;;
4650;SDS011;2338;49.602;8.722;2023-05-10T01:58:30;4.07;;;3.37;;
4650;SDS011;2338;49.602;8.722;2023-05-10T02:01:19;5.83;;;3.80;;
4650;SDS011;2338;49.602;8.722;2023-05-10T02:04:06;3.97;;;3.57;;
4650;SDS011;2338;49.602;8.722;2023-05-10T02:06:54;4.97;;;4.47;;
4650;SDS011;2338;49.602;8.722;2023-05-10T02:09:40;8.03;;;3.80;;
4650;SDS011;2338;49.602;8.722;2023-05-10T02:12:31;6.70;;;4.33;;
4650;SDS011;2338;49.602;8.722;2023-05-10T02:15:20;4.67;;;4.00;;
4650;SDS011;2338;49.602;8.722;2023-05-10T02:18:08;4.60;;;4.20;;
4650;SDS011;2338;49.602;8.722;2023-05-10T02:20:55;4.33;;;3.80;;
4650;SDS011;2338;49.602;8.722;2023-05-10T02:23:44;5.73;;;4.00;;
4650;SDS011;2338;49.602;8.722;2023-05-10T02:26:31;4.43;;;4.03;;
4650;SDS011;2338;49.602;8.722;2023-05-10T02:29:18;6.53;;;3.80;;
4650;SDS011;2338;49.602;8.722;2023-05-10T02:32:04;7.57;;;3.90;;
4650;SDS011;2338;49.602;8.722;2023-05-10T02:34:50;4.10;;;3.60;;
4650;SDS011;2338;49.602;8.722;2023-05-10T02:37:37;4.90;;;4.37;;
4650;SDS011;2338;49.602;8.722;2023-05-10T02:40:25;4.90;;;3.87;;
4650;SDS011;2338;49.602;8.722;2023-05-10T02:43:12;4.77;;;3.30;;
4650;SDS011;2338;49.602;8.722;2023-05-10T02:46:00;7.60;;;3.80;;
4650;SDS011;2338;49.602;8.722;2023-05-10T02:48:46;4.17;;;3.33;;
4650;SDS011;2338;49.602;8.722;2023-05-10T02:51:32;3.60;;;3.07;;
4650;SDS011;2338;49.602;8.722;2023-05-10T02:54:22;5.30;;;3.77;;
4650;SDS011;2338;49.602;8.722;2023-05-10T02:57:15;3.70;;;3.30;;
4650;SDS011;2338;49.602;8.722;2023-05-10T03:00:03;3.77;;;3.40;;
4650;SDS011;2338;49.602;8.722;2023-05-10T03:02:49;5.87;;;3.50;;
4650;SDS011;2338;49.602;8.722;2023-05-10T03:05:35;4.83;;;3.43;;
4650;SDS011;2338;49.602;8.722;2023-05-10T03:08:20;3.60;;;3.03;;
4650;SDS011;2338;49.602;8.722;2023-05-10T03:11:09;3.73;;;3.43;;
4650;SDS011;2338;49.602;8.722;2023-05-10T03:14:12;6.63;;;3.00;;
4650;SDS011;2338;49.602;8.722;2023-05-10T03:17:08;4.10;;;3.43;;
4650;SDS011;2338;49.602;8.722;2023-05-10T03:20:02;6.20;;;3.57;;
4650;SDS011;2338;49.602;8.722;2023-05-10T03:22:51;3.43;;;2.60;;
4650;SDS011;2338;49.602;8.722;2023-05-10T03:25:40;2.73;;;2.20;;
4650;SDS011;2338;49.602;8.722;2023-05-10T03:28:27;4.00;;;2.87;;
4650;SDS011;2338;49.602;8.722;2023-05-10T03:31:14;3.33;;;2.73;;
4650;SDS011;2338;49.602;8.722;2023-05-10T03:33:59;2.40;;;2.20;;
4650;SDS011;2338;49.602;8.722;2023-05-10T03:36:45;4.80;;;2.60;;
4650;SDS011;2338;49.602;8.722;2023-05-10T03:39:30;3.80;;;2.93;;
4650;SDS011;2338;49.602;8.722;2023-05-10T03:42:16;4.03;;;2.80;;
4650;SDS011;2338;49.602;8.722;2023-05-10T03:45:01;3.30;;;2.67;;
4650;SDS011;2338;49.602;8.722;2023-05-10T03:47:48;6.43;;;2.90;;
4650;SDS011;2338;49.602;8.722;2023-05-10T03:50:34;3.57;;;3.10;;
4650;SDS011;2338;49.602;8.722;2023-05-10T03:53:19;5.83;;;3.10;;
4650;SDS011;2338;49.602;8.722;2023-05-10T03:56:05;3.37;;;2.87;;
4650;SDS011;2338;49.602;8.722;2023-05-10T03:58:50;4.60;;;2.87;;
4650;SDS011;2338;49.602;8.722;2023-05-10T04:01:35;5.03;;;3.10;;
4650;SDS011;2338;49.602;8.722;2023-05-10T04:04:22;6.90;;;3.47;;
4650;SDS011;2338;49.602;8.722;2023-05-10T04:07:08;4.60;;;3.40;;
4650;SDS011;2338;49.602;8.722;2023-05-10T04:09:53;6.33;;;3.50;;
4650;SDS011;2338;49.602;8.722;2023-05-10T04:12:39;3.90;;;3.10;;
4650;SDS011;2338;49.602;8.722;2023-05-10T04:15:24;6.57;;;4.07;;
4650;SDS011;2338;49.602;8.722;2023-05-10T04:18:10;4.90;;;3.60;;
4650;SDS011;2338;49.602;8.722;2023-05-10T04:20:56;6.70;;;3.97;;
4650;SDS011;2338;49.602;8.722;2023-05-10T04:23:42;5.20;;;3.73;;
4650;SDS011;2338;49.602;8.722;2023-05-10T04:26:27;10.53;;;4.73;;
4650;SDS011;2338;49.602;8.722;2023-05-10T04:29:13;4.57;;;3.90;;
4650;SDS011;2338;49.602;8.722;2023-05-10T04:31:58;4.47;;;4.00;;
4650;SDS011;2338;49.602;8.722;2023-05-10T04:34:44;4.67;;;3.80;;
4650;SDS011;2338;49.602;8.722;2023-05-10T04:37:31;6.10;;;3.97;;
4650;SDS011;2338;49.602;8.722;2023-05-10T04:40:17;5.73;;;3.93;;
4650;SDS011;2338;49.602;8.722;2023-05-10T04:43:02;4.03;;;3.63;;
4650;SDS011;2338;49.602;8.722;2023-05-10T04:45:47;8.87;;;3.83;;
4650;SDS011;2338;49.602;8.722;2023-05-10T04:48:34;5.70;;;4.07;;
4650;SDS011;2338;49.602;8.722;2023-05-10T04:51:19;7.23;;;3.70;;
4650;SDS011;2338;49.602;8.722;2023-05-10T04:54:06;4.87;;;3.50;;
4650;SDS011;2338;49.602;8.722;2023-05-10T04:56:51;6.60;;;3.90;;
4650;SDS011;2338;49.602;8.722;2023-05-10T04:59:37;4.80;;;3.30;;
4650;SDS011;2338;49.602;8.722;2023-05-10T05:02:22;7.63;;;3.40;;
4650;SDS011;2338;49.602;8.722;2023-05-10T05:05:08;3.67;;;3.37;;
4650;SDS011;2338;49.602;8.722;2023-05-10T05:07:53;6.07;;;3.67;;
4650;SDS011;2338;49.602;8.722;2023-05-10T05:10:40;3.90;;;3.23;;
4650;SDS011;2338;49.602;8.722;2023-05-10T05:13:25;5.97;;;3.27;;
4650;SDS011;2338;49.602;8.722;2023-05-10T05:16:11;3.57;;;3.17;;
4650;SDS011;2338;49.602;8.722;2023-05-10T05:18:56;7.33;;;3.47;;
4650;SDS011;2338;49.602;8.722;2023-05-10T05:21:42;4.57;;;3.60;;
4650;SDS011;2338;49.602;8.722;2023-05-10T05:24:27;5.60;;;2.90;;
4650;SDS011;2338;49.602;8.722;2023-05-10T05:27:14;4.17;;;3.40;;
4650;SDS011;2338;49.602;8.722;2023-05-10T05:30:00;10.43;;;3.57;;
4650;SDS011;2338;49.602;8.722;2023-05-10T05:32:45;4.87;;;2.73;;
4650;SDS011;2338;49.602;8.722;2023-05-10T05:35:31;3.80;;;3.20;;
4650;SDS011;2338;49.602;8.722;2023-05-10T05:38:16;9.17;;;2.83;;
4650;SDS011;2338;49.602;8.722;2023-05-10T05:41:02;3.43;;;2.93;;
4650;SDS011;2338;49.602;8.722;2023-05-10T05:43:49;5.80;;;2.70;;
4650;SDS011;2338;49.602;8.722;2023-05-10T05:46:34;7.53;;;4.37;;
4650;SDS011;2338;49.602;8.722;2023-05-10T05:49:20;11.00;;;3.30;;
4650;SDS011;2338;49.602;8.722;2023-05-10T05:52:05;4.70;;;3.00;;
4650;SDS011;2338;49.602;8.722;2023-05-10T05:54:51;10.63;;;3.40;;
4650;SDS011;2338;49.602;8.722;2023-05-10T05:57:36;3.87;;;3.00;;
4650;SDS011;2338;49.602;8.722;2023-05-10T06:00:23;8.80;;;3.43;;
4650;SDS011;2338;49.602;8.722;2023-05-10T06:03:09;3.40;;;2.43;;
4650;SDS011;2338;49.602;8.722;2023-05-10T06:05:55;3.20;;;2.50;;
4650;SDS011;2338;49.602;8.722;2023-05-10T06:08:40;3.80;;;3.40;;
4650;SDS011;2338;49.602;8.722;2023-05-10T06:11:26;5.60;;;3.13;;
4650;SDS011;2338;49.602;8.722;2023-05-10T06:14:11;12.00;;;2.90;;
4650;SDS011;2338;49.602;8.722;2023-05-10T06:16:58;3.97;;;3.20;;
4650;SDS011;2338;49.602;8.722;2023-05-10T06:19:44;5.07;;;3.03;;
4650;SDS011;2338;49.602;8.722;2023-05-10T06:22:29;6.63;;;3.00;;
4650;SDS011;2338;49.602;8.722;2023-05-10T06:25:15;5.30;;;3.37;;
4650;SDS011;2338;49.602;8.722;2023-05-10T06:28:01;3.70;;;3.13;;
4650;SDS011;2338;49.602;8.722;2023-05-10T06:30:47;5.27;;;3.57;;
4650;SDS011;2338;49.602;8.722;2023-05-10T06:33:34;3.73;;;3.33;;
4650;SDS011;2338;49.602;8.722;2023-05-10T06:36:19;6.70;;;3.20;;
4650;SDS011;2338;49.602;8.722;2023-05-10T06:39:05;8.63;;;3.83;;
4650;SDS011;2338;49.602;8.722;2023-05-10T06:41:50;6.00;;;3.53;;
4650;SDS011;2338;49.602;8.722;2023-05-10T06:44:36;4.53;;;4.07;;
4650;SDS011;2338;49.602;8.722;2023-05-10T06:47:22;5.50;;;4.00;;
4650;SDS011;2338;49.602;8.722;2023-05-10T06:50:09;3.87;;;3.47;;
4650;SDS011;2338;49.602;8.722;2023-05-10T06:52:55;5.43;;;4.13;;
4650;SDS011;2338;49.602;8.722;2023-05-10T06:55:41;6.70;;;4.20;;
4650;SDS011;2338;49.602;8.722;2023-05-10T06:58:27;3.90;;;3.60;;
4650;SDS011;2338;49.602;8.722;2023-05-10T07:01:12;6.00;;;3.30;;
4650;SDS011;2338;49.602;8.722;2023-05-10T07:03:58;7.57;;;3.70;;
4650;SDS011;2338;49.602;8.722;2023-05-10T07:06:45;5.00;;;3.30;;
4650;SDS011;2338;49.602;8.722;2023-05-10T07:09:30;6.10;;;3.30;;
4650;SDS011;2338;49.602;8.722;2023-05-10T07:12:16;5.13;;;3.07;;
4650;SDS011;2338;49.602;8.722;2023-05-10T07:15:01;4.10;;;3.23;;
4650;SDS011;2338;49.602;8.722;2023-05-10T07:17:47;4.70;;;3.63;;
4650;SDS011;2338;49.602;8.722;2023-05-10T07:20:32;4.57;;;3.77;;
4650;SDS011;2338;49.602;8.722;2023-05-10T07:23:19;4.33;;;3.40;;
4650;SDS011;2338;49.602;8.722;2023-05-10T07:26:04;5.07;;;3.57;;
4650;SDS011;2338;49.602;8.722;2023-05-10T07:28:50;4.63;;;3.70;;
4650;SDS011;2338;49.602;8.722;2023-05-10T07:31:36;6.77;;;4.20;;
4650;SDS011;2338;49.602;8.722;2023-05-10T07:34:21;5.10;;;3.90;;
4650;SDS011;2338;49.602;8.722;2023-05-10T07:37:07;4.40;;;4.00;;
4650;SDS011;2338;49.602;8.722;2023-05-10T07:39:54;6.03;;;4.00;;
4650;SDS011;2338;49.602;8.722;2023-05-10T07:42:39;4.70;;;4.30;;
4650;SDS011;2338;49.602;8.722;2023-05-10T07:45:25;6.47;;;3.70;;
4650;SDS011;2338;49.602;8.722;2023-05-10T07:48:10;9.43;;;4.00;;
4650;SDS011;2338;49.602;8.722;2023-05-10T07:50:56;6.90;;;3.43;;
4650;SDS011;2338;49.602;8.722;2023-05-10T07:53:41;4.00;;;3.60;;
4650;SDS011;2338;49.602;8.722;2023-05-10T07:56:28;5.83;;;3.83;;
4650;SDS011;2338;49.602;8.722;2023-05-10T07:59:15;4.70;;;3.33;;
4650;SDS011;2338;49.602;8.722;2023-05-10T08:02:01;7.20;;;3.07;;
4650;SDS011;2338;49.602;8.722;2023-05-10T08:04:47;3.93;;;3.23;;
4650;SDS011;2338;49.602;8.722;2023-05-10T08:07:33;6.80;;;3.20;;
4650;SDS011;2338;49.602;8.722;2023-05-10T08:10:18;3.90;;;3.30;;
4650;SDS011;2338;49.602;8.722;2023-05-10T08:13:05;4.23;;;3.30;;
4650;SDS011;2338;49.602;8.722;2023-05-10T08:15:51;3.63;;;3.10;;
4650;SDS011;2338;49.602;8.722;2023-05-10T08:18:36;12.53;;;3.20;;
4650;SDS011;2338;49.602;8.722;2023-05-10T08:21:22;6.87;;;2.67;;
4650;SDS011;2338;49.602;8.722;2023-05-10T08:24:08;4.27;;;3.87;;
4650;SDS011;2338;49.602;8.722;2023-05-10T08:26:54;5.87;;;3.60;;
4650;SDS011;2338;49.602;8.722;2023-05-10T08:29:40;11.40;;;3.60;;
4650;SDS011;2338;49.602;8.722;2023-05-10T08:32:26;4.50;;;3.30;;
4650;SDS011;2338;49.602;8.722;2023-05-10T08:35:11;4.27;;;3.43;;
4650;SDS011;2338;49.602;8.722;2023-05-10T08:37:57;3.80;;;3.00;;
4650;SDS011;2338;49.602;8.722;2023-05-10T08:40:43;4.30;;;3.60;;
4650;SDS011;2338;49.602;8.722;2023-05-10T08:43:29;3.97;;;3.20;;
4650;SDS011;2338;49.602;8.722;2023-05-10T08:46:17;7.10;;;3.87;;
4650;SDS011;2338;49.602;8.722;2023-05-10T08:49:04;3.53;;;3.20;;
4650;SDS011;2338;49.602;8.722;2023-05-10T08:51:52;5.33;;;3.40;;
4650;SDS011;2338;49.602;8.722;2023-05-10T08:54:39;4.07;;;3.20;;
4650;SDS011;2338;49.602;8.722;2023-05-10T08:57:25;4.70;;;3.37;;
4650;SDS011;2338;49.602;8.722;2023-05-10T09:00:12;5.50;;;3.27;;
4650;SDS011;2338;49.602;8.722;2023-05-10T09:03:00;5.20;;;3.77;;
4650;SDS011;2338;49.602;8.722;2023-05-10T09:05:46;3.60;;;3.17;;
4650;SDS011;2338;49.602;8.722;2023-05-10T09:08:33;7.17;;;3.50;;
4650;SDS011;2338;49.602;8.722;2023-05-10T09:11:18;3.17;;;2.87;;
4650;SDS011;2338;49.602;8.722;2023-05-10T09:14:05;3.60;;;3.10;;
4650;SDS011;2338;49.602;8.722;2023-05-10T09:16:50;3.30;;;2.63;;
4650;SDS011;2338;49.602;8.722;2023-05-10T09:19:38;4.83;;;2.70;;
4650;SDS011;2338;49.602;8.722;2023-05-10T09:22:24;6.67;;;3.57;;
4650;SDS011;2338;49.602;8.722;2023-05-10T09:25:10;6.83;;;2.43;;
4650;SDS011;2338;49.602;8.722;2023-05-10T09:27:57;4.60;;;3.00;;
4650;SDS011;2338;49.602;8.722;2023-05-10T09:30:42;10.10;;;3.10;;
4650;SDS011;2338;49.602;8.722;2023-05-10T09:33:28;4.77;;;2.30;;
4650;SDS011;2338;49.602;8.722;2023-05-10T09:36:15;5.57;;;2.47;;
4650;SDS011;2338;49.602;8.722;2023-05-10T09:39:00;4.00;;;3.10;;
4650;SDS011;2338;49.602;8.722;2023-05-10T09:41:47;6.23;;;2.73;;
4650;SDS011;2338;49.602;8.722;2023-05-10T09:44:33;9.20;;;3.20;;
4650;SDS011;2338;49.602;8.722;2023-05-10T09:47:19;4.13;;;2.50;;
4650;SDS011;2338;49.602;8.722;2023-05-10T09:50:05;7.90;;;2.63;;
4650;SDS011;2338;49.602;8.722;2023-05-10T09:52:53;6.63;;;2.53;;
4650;SDS011;2338;49.602;8.722;2023-05-10T09:55:42;6.83;;;2.40;;
4650;SDS011;2338;49.602;8.722;2023-05-10T09:58:28;3.43;;;2.10;;
4650;SDS011;2338;49.602;8.722;2023-05-10T10:01:14;2.83;;;2.30;;
4650;SDS011;2338;49.602;8.722;2023-05-10T10:03:59;3.63;;;2.97;;
4650;SDS011;2338;49.602;8.722;2023-05-10T10:06:57;7.07;;;3.50;;
4650;SDS011;2338;49.602;8.722;2023-05-10T10:09:45;5.00;;;3.33;;
4650;SDS011;2338;49.602;8.722;2023-05-10T10:12:30;6.93;;;2.73;;
4650;SDS011;2338;49.602;8.722;2023-05-10T10:15:16;3.47;;;3.00;;
4650;SDS011;2338;49.602;8.722;2023-05-10T10:18:01;5.10;;;3.57;;
4650;SDS011;2338;49.602;8.722;2023-05-10T10:20:47;12.03;;;8.97;;
4650;SDS011;2338;49.602;8.722;2023-05-10T10:23:34;4.80;;;4.30;;
4650;SDS011;2338;49.602;8.722;2023-05-10T10:26:21;3.30;;;2.93;;
4650;SDS011;2338;49.602;8.722;2023-05-10T10:29:10;4.90;;;3.43;;
4650;SDS011;2338;49.602;8.722;2023-05-10T10:32:06;4.20;;;3.40;;
4650;SDS011;2338;49.602;8.722;2023-05-10T10:34:56;3.73;;;2.90;;
4650;SDS011;2338;49.602;8.722;2023-05-10T10:37:43;5.33;;;3.20;;
4650;SDS011;2338;49.602;8.722;2023-05-10T10:40:30;4.00;;;2.57;;
4650;SDS011;2338;49.602;8.722;2023-05-10T10:43:24;3.13;;;2.43;;
4650;SDS011;2338;49.602;8.722;2023-05-10T10:46:11;4.30;;;2.50;;
4650;SDS011;2338;49.602;8.722;2023-05-10T10:49:08;3.47;;;2.20;;
4650;SDS011;2338;49.602;8.722;2023-05-10T10:52:13;11.83;;;2.93;;
4650;SDS011;2338;49.602;8.722;2023-05-10T10:55:00;7.33;;;2.93;;
4650;SDS011;2338;49.602;8.722;2023-05-10T10:57:47;5.80;;;2.30;;
4650;SDS011;2338;49.602;8.722;2023-05-10T11:00:36;5.63;;;2.70;;
4650;SDS011;2338;49.602;8.722;2023-05-10T11:03:24;4.23;;;2.70;;
4650;SDS011;2338;49.602;8.722;2023-05-10T11:06:09;18.40;;;3.83;;
4650;SDS011;2338;49.602;8.722;2023-05-10T11:08:55;3.90;;;2.67;;
4650;SDS011;2338;49.602;8.722;2023-05-10T11:11:50;4.53;;;2.90;;
4650;SDS011;2338;49.602;8.722;2023-05-10T11:14:38;5.47;;;2.90;;
4650;SDS011;2338;49.602;8.722;2023-05-10T11:17:26;3.90;;;3.30;;
4650;SDS011;2338;49.602;8.722;2023-05-10T11:20:14;4.60;;;2.77;;
4650;SDS011;2338;49.602;8.722;2023-05-10T11:23:10;8.53;;;2.93;;
4650;SDS011;2338;49.602;8.722;2023-05-10T11:25:59;4.17;;;2.70;;
4650;SDS011;2338;49.602;8.722;2023-05-10T11:28:45;4.53;;;2.30;;
4650;SDS011;2338;49.602;8.722;2023-05-10T11:31:32;3.37;;;2.50;;
4650;SDS011;2338;49.602;8.722;2023-05-10T11:34:25;4.43;;;2.57;;
4650;SDS011;2338;49.602;8.722;2023-05-10T11:37:11;3.30;;;2.57;;
4650;SDS011;2338;49.602;8.722;2023-05-10T11:39:57;2.63;;;2.23;;
4650;SDS011;2338;49.602;8.722;2023-05-10T11:42:42;7.37;;;2.00;;
4650;SDS011;2338;49.602;8.722;2023-05-10T11:45:28;3.83;;;2.40;;
4650;SDS011;2338;49.602;8.722;2023-05-10T11:48:15;4.33;;;1.90;;
4650;SDS011;2338;49.602;8.722;2023-05-10T11:51:07;2.97;;;1.87;;
4650;SDS011;2338;49.602;8.722;2023-05-10T11:53:54;3.50;;;1.97;;
4650;SDS011;2338;49.602;8.722;2023-05-10T11:56:41;5.20;;;1.70;;
4650;SDS011;2338;49.602;8.722;2023-05-10T11:59:26;5.40;;;1.40;;
4650;SDS011;2338;49.602;8.722;2023-05-10T12:02:12;6.20;;;1.73;;
4650;SDS011;2338;49.602;8.722;2023-05-10T12:04:58;3.77;;;1.70;;
4650;SDS011;2338;49.602;8.722;2023-05-10T12:07:45;2.30;;;1.60;;
4650;SDS011;2338;49.602;8.722;2023-05-10T12:10:33;2.40;;;2.10;;
4650;SDS011;2338;49.602;8.722;2023-05-10T12:13:19;4.23;;;1.77;;
4650;SDS011;2338;49.602;8.722;2023-05-10T12:16:15;4.40;;;1.67;;
4650;SDS011;2338;49.602;8.722;2023-05-10T12:19:01;2.80;;;1.70;;
4650;SDS011;2338;49.602;8.722;2023-05-10T12:21:47;2.90;;;1.70;;
4650;SDS011;2338;49.602;8.722;2023-05-10T12:24:35;3.10;;;1.53;;
4650;SDS011;2338;49.602;8.722;2023-05-10T12:27:21;2.10;;;1.50;;
4650;SDS011;2338;49.602;8.722;2023-05-10T12:30:07;4.33;;;1.87;;
4650;SDS011;2338;49.602;8.722;2023-05-10T12:32:53;6.40;;;2.43;;
4650;SDS011;2338;49.602;8.722;2023-05-10T12:35:44;11.60;;;1.73;;
4650;SDS011;2338;49.602;8.722;2023-05-10T12:38:32;2.20;;;1.10;;
4650;SDS011;2338;49.602;8.722;2023-05-10T12:41:20;6.03;;;1.53;;
4650;SDS011;2338;49.602;8.722;2023-05-10T12:44:05;6.90;;;1.40;;
4650;SDS011;2338;49.602;8.722;2023-05-10T12:46:51;2.60;;;1.17;;
4650;SDS011;2338;49.602;8.722;2023-05-10T12:49:37;5.70;;;1.53;;
4650;SDS011;2338;49.602;8.722;2023-05-10T12:52:22;4.13;;;1.40;;
4650;SDS011;2338;49.602;8.722;2023-05-10T12:55:07;2.07;;;1.10;;
4650;SDS011;2338;49.602;8.722;2023-05-10T12:57:54;3.80;;;1.50;;
4650;SDS011;2338;49.602;8.722;2023-05-10T13:00:39;2.73;;;1.20;;
4650;SDS011;2338;49.602;8.722;2023-05-10T13:03:25;3.20;;;1.27;;
4650;SDS011;2338;49.602;8.722;2023-05-10T13:06:11;3.87;;;1.23;;
4650;SDS011;2338;49.602;8.722;2023-05-10T13:08:57;3.20;;;1.30;;
4650;SDS011;2338;49.602;8.722;2023-05-10T13:11:42;12.80;;;1.60;;
4650;SDS011;2338;49.602;8.722;2023-05-10T13:14:29;6.43;;;2.00;;
4650;SDS011;2338;49.602;8.722;2023-05-10T13:17:15;2.57;;;1.27;;
4650;SDS011;2338;49.602;8.722;2023-05-10T13:20:01;3.93;;;2.10;;
4650;SDS011;2338;49.602;8.722;2023-05-10T13:22:46;4.30;;;1.43;;
4650;SDS011;2338;49.602;8.722;2023-05-10T13:25:32;3.77;;;1.50;;
4650;SDS011;2338;49.602;8.722;2023-05-10T13:28:18;4.47;;;1.77;;
4650;SDS011;2338;49.602;8.722;2023-05-10T13:31:04;5.30;;;1.60;;
4650;SDS011;2338;49.602;8.722;2023-05-10T13:33:50;1.80;;;1.40;;
4650;SDS011;2338;49.602;8.722;2023-05-10T13:36:35;4.07;;;1.50;;
4650;SDS011;2338;49.602;8.722;2023-05-10T13:39:21;4.40;;;1.83;;
4650;SDS011;2338;49.602;8.722;2023-05-10T13:42:07;6.43;;;1.97;;
4650;SDS011;2338;49.602;8.722;2023-05-10T13:44:52;3.60;;;1.50;;
4650;SDS011;2338;49.602;8.722;2023-05-10T13:47:39;8.20;;;1.70;;
4650;SDS011;2338;49.602;8.722;2023-05-10T13:50:25;3.13;;;1.50;;
4650;SDS011;2338;49.602;8.722;2023-05-10T13:53:10;4.57;;;1.50;;
4650;SDS011;2338;49.602;8.722;2023-05-10T13:55:56;2.90;;;1.20;;
4650;SDS011;2338;49.602;8.722;2023-05-10T13:58:41;8.60;;;1.30;;
4650;SDS011;2338;49.602;8.722;2023-05-10T14:01:27;3.37;;;1.90;;
4650;SDS011;2338;49.602;8.722;2023-05-10T14:04:14;2.70;;;1.40;;
4650;SDS011;2338;49.602;8.722;2023-05-10T14:06:59;3.60;;;1.33;;
4650;SDS011;2338;49.602;8.722;2023-05-10T14:09:45;1.90;;;1.20;;
4650;SDS011;2338;49.602;8.722;2023-05-10T14:12:30;3.70;;;1.07;;
4650;SDS011;2338;49.602;8.722;2023-05-10T14:15:16;6.60;;;1.40;;
4650;SDS011;2338;49.602;8.722;2023-05-10T14:18:01;9.03;;;1.47;;
4650;SDS011;2338;49.602;8.722;2023-05-10T14:20:48;6.03;;;1.40;;
4650;SDS011;2338;49.602;8.722;2023-05-10T14:23:34;4.20;;;1.60;;
4650;SDS011;2338;49.602;8.722;2023-05-10T14:26:19;3.73;;;1.57;;
4650;SDS011;2338;49.602;8.722;2023-05-10T14:29:05;5.67;;;1.30;;
4650;SDS011;2338;49.602;8.722;2023-05-10T14:31:50;3.13;;;0.97;;
4650;SDS011;2338;49.602;8.722;2023-05-10T14:34:36;3.73;;;1.40;;
4650;SDS011;2338;49.602;8.722;2023-05-10T14:37:23;4.80;;;1.30;;
4650;SDS011;2338;49.602;8.722;2023-05-10T14:40:09;5.27;;;1.70;;
4650;SDS011;2338;49.602;8.722;2023-05-10T14:42:55;3.60;;;1.70;;
4650;SDS011;2338;49.602;8.722;2023-05-10T14:45:40;5.30;;;1.50;;
4650;SDS011;2338;49.602;8.722;2023-05-10T14:48:25;7.03;;;2.40;;
4650;SDS011;2338;49.602;8.722;2023-05-10T14:51:11;6.67;;;1.77;;
4650;SDS011;2338;49.602;8.722;2023-05-10T14:53:58;3.97;;;1.97;;
4650;SDS011;2338;49.602;8.722;2023-05-10T14:56:43;4.17;;;1.10;;
4650;SDS011;2338;49.602;8.722;2023-05-10T14:59:29;4.87;;;1.67;;
4650;SDS011;2338;49.602;8.722;2023-05-10T15:02:14;4.40;;;1.50;;
4650;SDS011;2338;49.602;8.722;2023-05-10T15:05:00;3.50;;;1.07;;
4650;SDS011;2338;49.602;8.722;2023-05-10T15:07:45;4.23;;;1.10;;
4650;SDS011;2338;49.602;8.722;2023-05-10T15:10:32;4.70;;;0.90;;
4650;SDS011;2338;49.602;8.722;2023-05-10T15:13:18;1.53;;;0.60;;
4650;SDS011;2338;49.602;8.722;2023-05-10T15:16:04;3.40;;;0.70;;
4650;SDS011;2338;49.602;8.722;2023-05-10T15:18:50;6.30;;;1.30;;
4650;SDS011;2338;49.602;8.722;2023-05-10T15:21:35;5.73;;;1.20;;
4650;SDS011;2338;49.602;8.722;2023-05-10T15:24:22;3.40;;;1.00;;
4650;SDS011;2338;49.602;8.722;2023-05-10T15:27:09;4.40;;;1.03;;
4650;SDS011;2338;49.602;8.722;2023-05-10T15:29:54;2.80;;;1.07;;
4650;SDS011;2338;49.602;8.722;2023-05-10T15:32:40;9.93;;;2.70;;
4650;SDS011;2338;49.602;8.722;2023-05-10T15:35:26;2.07;;;0.80;;
4650;SDS011;2338;49.602;8.722;2023-05-10T15:38:11;2.67;;;1.03;;
4650;SDS011;2338;49.602;8.722;2023-05-10T15:40:57;2.37;;;0.80;;
4650;SDS011;2338;49.602;8.722;2023-05-10T15:43:43;2.33;;;1.00;;
4650;SDS011;2338;49.602;8.722;2023-05-10T15:46:29;1.80;;;0.83;;
4650;SDS011;2338;49.602;8.722;2023-05-10T15:49:15;3.47;;;1.30;;
4650;SDS011;2338;49.602;8.722;2023-05-10T15:52:00;4.03;;;0.90;;
4650;SDS011;2338;49.602;8.722;2023-05-10T15:54:46;2.90;;;0.90;;
4650;SDS011;2338;49.602;8.722;2023-05-10T15:57:31;1.93;;;0.83;;
4650;SDS011;2338;49.602;8.722;2023-05-10T16:00:18;1.97;;;0.83;;
4650;SDS011;2338;49.602;8.722;2023-05-10T16:03:04;2.33;;;0.80;;
4650;SDS011;2338;49.602;8.722;2023-05-10T16:05:50;2.77;;;1.07;;
4650;SDS011;2338;49.602;8.722;2023-05-10T16:08:36;1.67;;;0.70;;
4650;SDS011;2338;49.602;8.722;2023-05-10T16:11:22;8.57;;;0.97;;
4650;SDS011;2338;49.602;8.722;2023-05-10T16:14:07;2.77;;;0.80;;
4650;SDS011;2338;49.602;8.722;2023-05-10T16:16:54;3.10;;;1.10;;
4650;SDS011;2338;49.602;8.722;2023-05-10T16:19:40;2.27;;;0.90;;
4650;SDS011;2338;49.602;8.722;2023-05-10T16:22:25;2.10;;;1.07;;
4650;SDS011;2338;49.602;8.722;2023-05-10T16:25:12;7.53;;;1.10;;
4650;SDS011;2338;49.602;8.722;2023-05-10T16:27:57;2.70;;;0.70;;
4650;SDS011;2338;49.602;8.722;2023-05-10T16:30:43;3.27;;;1.10;;
4650;SDS011;2338;49.602;8.722;2023-05-10T16:33:31;1.80;;;0.80;;
4650;SDS011;2338;49.602;8.722;2023-05-10T16:36:16;4.53;;;1.03;;
4650;SDS011;2338;49.602;8.722;2023-05-10T16:39:02;2.23;;;1.03;;
4650;SDS011;2338;49.602;8.722;2023-05-10T16:41:48;2.27;;;0.93;;
4650;SDS011;2338;49.602;8.722;2023-05-10T16:44:33;2.57;;;1.00;;
4650;SDS011;2338;49.602;8.722;2023-05-10T16:47:18;2.30;;;0.87;;
4650;SDS011;2338;49.602;8.722;2023-05-10T16:50:06;2.13;;;0.80;;
4650;SDS011;2338;49.602;8.722;2023-05-10T16:52:52;3.90;;;1.10;;
4650;SDS011;2338;49.602;8.722;2023-05-10T16:55:37;1.97;;;0.60;;
4650;SDS011;2338;49.602;8.722;2023-05-10T16:58:23;2.00;;;0.90;;
4650;SDS011;2338;49.602;8.722;2023-05-10T17:01:09;4.53;;;0.80;;
4650;SDS011;2338;49.602;8.722;2023-05-10T17:03:54;8.23;;;1.50;;
4650;SDS011;2338;49.602;8.722;2023-05-10T17:06:41;2.67;;;1.00;;
4650;SDS011;2338;49.602;8.722;2023-05-10T17:09:27;5.23;;;0.90;;
4650;SDS011;2338;49.602;8.722;2023-05-10T17:12:12;1.70;;;0.80;;
4650;SDS011;2338;49.602;8.722;2023-05-10T17:14:58;5.20;;;0.90;;
4650;SDS011;2338;49.602;8.722;2023-05-10T17:17:43;2.70;;;0.80;;